sensor_id;sensor_type;location;lat;lon;timestamp;P1;durP1;ratioP1;P2;durP2;ratioP2
38851;SDS011;24605;50.092;9.182;2023-09-19T00:01:29;5.63;;;1.27;;
38851;SDS011;24605;50.092;9.182;2023-09-19T00:03:58;2.92;;;1.17;;
38851;SDS011;24605;50.092;9.182;2023-09-19T00:06:27;3.45;;;1.10;;
38851;SDS011;24605;50.092;9.182;2023-09-19T00:08:56;3.53;;;1.35;;
38851;SDS011;24605;50.092;9.182;2023-09-19T00:11:23;3.58;;;1.25;;
38851;SDS011;24605;50.092;9.182;2023-09-19T00:13:51;7.60;;;1.48;;
38851;SDS011;24605;50.092;9.182;2023-09-19T00:16:17;2.53;;;1.10;;
38851;SDS011;24605;50.092;9.182;2023-09-19T00:18:44;6.05;;;1.30;;
38851;SDS011;24605;50.092;9.182;2023-09-19T00:21:12;4.50;;;0.98;;
38851;SDS011;24605;50.092;9.182;2023-09-19T00:23:40;2.78;;;1.10;;
38851;SDS011;24605;50.092;9.182;2023-09-19T00:26:07;2.75;;;1.10;;
38851;SDS011;24605;50.092;9.182;2023-09-19T00:28:33;2.70;;;1.20;;
38851;SDS011;24605;50.092;9.182;2023-09-19T00:31:00;4.43;;;1.40;;
38851;SDS011;24605;50.092;9.182;2023-09-19T00:33:27;4.97;;;1.35;;
38851;SDS011;24605;50.092;9.182;2023-09-19T00:35:54;7.07;;;1.13;;
38851;SDS011;24605;50.092;9.182;2023-09-19T00:38:24;2.72;;;1.10;;
38851;SDS011;24605;50.092;9.182;2023-09-19T00:40:52;4.13;;;1.30;;
38851;SDS011;24605;50.092;9.182;2023-09-19T00:43:19;2.60;;;1.30;;
38851;SDS011;24605;50.092;9.182;2023-09-19T00:45:49;4.15;;;1.25;;
38851;SDS011;24605;50.092;9.182;2023-09-19T00:48:18;4.32;;;1.30;;
38851;SDS011;24605;50.092;9.182;2023-09-19T00:50:45;3.47;;;1.20;;
38851;SDS011;24605;50.092;9.182;2023-09-19T00:53:14;2.80;;;1.10;;
38851;SDS011;24605;50.092;9.182;2023-09-19T00:55:45;2.55;;;1.27;;
38851;SDS011;24605;50.092;9.182;2023-09-19T00:58:13;2.80;;;1.25;;
38851;SDS011;24605;50.092;9.182;2023-09-19T01:00:40;6.05;;;1.40;;
38851;SDS011;24605;50.092;9.182;2023-09-19T01:03:09;4.82;;;1.30;;
38851;SDS011;24605;50.092;9.182;2023-09-19T01:05:38;2.97;;;1.20;;
38851;SDS011;24605;50.092;9.182;2023-09-19T01:08:05;4.65;;;1.40;;
38851;SDS011;24605;50.092;9.182;2023-09-19T01:10:32;3.90;;;1.50;;
38851;SDS011;24605;50.092;9.182;2023-09-19T01:13:01;4.15;;;1.38;;
38851;SDS011;24605;50.092;9.182;2023-09-19T01:15:38;5.20;;;1.20;;
38851;SDS011;24605;50.092;9.182;2023-09-19T01:18:13;5.30;;;1.50;;
38851;SDS011;24605;50.092;9.182;2023-09-19T01:20:50;3.85;;;1.27;;
38851;SDS011;24605;50.092;9.182;2023-09-19T01:23:23;3.97;;;1.30;;
38851;SDS011;24605;50.092;9.182;2023-09-19T01:26:06;3.17;;;1.30;;
38851;SDS011;24605;50.092;9.182;2023-09-19T01:31:29;4.10;;;1.40;;
38851;SDS011;24605;50.092;9.182;2023-09-19T01:34:01;4.23;;;1.73;;
38851;SDS011;24605;50.092;9.182;2023-09-19T01:36:30;3.15;;;1.42;;
38851;SDS011;24605;50.092;9.182;2023-09-19T01:39:00;5.93;;;1.45;;
38851;SDS011;24605;50.092;9.182;2023-09-19T01:41:38;3.83;;;1.60;;
38851;SDS011;24605;50.092;9.182;2023-09-19T01:44:15;4.78;;;1.50;;
38851;SDS011;24605;50.092;9.182;2023-09-19T01:46:49;5.72;;;1.52;;
38851;SDS011;24605;50.092;9.182;2023-09-19T01:49:18;4.55;;;1.85;;
38851;SDS011;24605;50.092;9.182;2023-09-19T01:51:55;3.70;;;1.50;;
38851;SDS011;24605;50.092;9.182;2023-09-19T01:54:30;3.45;;;1.67;;
38851;SDS011;24605;50.092;9.182;2023-09-19T01:57:03;5.38;;;1.60;;
38851;SDS011;24605;50.092;9.182;2023-09-19T01:59:35;6.93;;;1.90;;
38851;SDS011;24605;50.092;9.182;2023-09-19T02:02:09;4.45;;;2.00;;
38851;SDS011;24605;50.092;9.182;2023-09-19T02:04:36;5.20;;;1.60;;
38851;SDS011;24605;50.092;9.182;2023-09-19T02:07:03;4.72;;;1.90;;
38851;SDS011;24605;50.092;9.182;2023-09-19T02:09:33;4.10;;;1.58;;
38851;SDS011;24605;50.092;9.182;2023-09-19T02:12:00;5.55;;;2.03;;
38851;SDS011;24605;50.092;9.182;2023-09-19T02:14:26;7.65;;;1.92;;
38851;SDS011;24605;50.092;9.182;2023-09-19T02:16:54;4.53;;;2.28;;
38851;SDS011;24605;50.092;9.182;2023-09-19T02:19:22;5.60;;;2.13;;
38851;SDS011;24605;50.092;9.182;2023-09-19T02:21:49;7.15;;;2.40;;
38851;SDS011;24605;50.092;9.182;2023-09-19T02:24:15;5.45;;;2.17;;
38851;SDS011;24605;50.092;9.182;2023-09-19T02:26:42;9.35;;;2.38;;
38851;SDS011;24605;50.092;9.182;2023-09-19T02:29:09;4.15;;;2.20;;
38851;SDS011;24605;50.092;9.182;2023-09-19T02:31:37;5.90;;;2.60;;
38851;SDS011;24605;50.092;9.182;2023-09-19T02:34:04;6.18;;;2.25;;
38851;SDS011;24605;50.092;9.182;2023-09-19T02:36:35;6.25;;;2.53;;
38851;SDS011;24605;50.092;9.182;2023-09-19T02:39:02;6.57;;;2.20;;
38851;SDS011;24605;50.092;9.182;2023-09-19T02:41:30;4.55;;;2.13;;
38851;SDS011;24605;50.092;9.182;2023-09-19T02:43:58;4.72;;;2.30;;
38851;SDS011;24605;50.092;9.182;2023-09-19T02:46:24;4.97;;;2.40;;
38851;SDS011;24605;50.092;9.182;2023-09-19T02:48:51;7.90;;;2.65;;
38851;SDS011;24605;50.092;9.182;2023-09-19T02:51:18;8.02;;;2.85;;
38851;SDS011;24605;50.092;9.182;2023-09-19T02:53:47;6.20;;;2.30;;
38851;SDS011;24605;50.092;9.182;2023-09-19T02:56:14;7.68;;;2.92;;
38851;SDS011;24605;50.092;9.182;2023-09-19T02:58:41;4.60;;;2.30;;
38851;SDS011;24605;50.092;9.182;2023-09-19T03:01:08;7.68;;;2.70;;
38851;SDS011;24605;50.092;9.182;2023-09-19T03:03:36;8.90;;;2.67;;
38851;SDS011;24605;50.092;9.182;2023-09-19T03:06:04;5.90;;;2.42;;
38851;SDS011;24605;50.092;9.182;2023-09-19T03:08:31;8.32;;;3.03;;
38851;SDS011;24605;50.092;9.182;2023-09-19T03:11:04;4.30;;;2.28;;
38851;SDS011;24605;50.092;9.182;2023-09-19T03:13:33;7.00;;;2.63;;
38851;SDS011;24605;50.092;9.182;2023-09-19T03:16:01;6.88;;;2.92;;
38851;SDS011;24605;50.092;9.182;2023-09-19T03:18:30;7.47;;;2.90;;
38851;SDS011;24605;50.092;9.182;2023-09-19T03:20:57;4.78;;;2.83;;
38851;SDS011;24605;50.092;9.182;2023-09-19T03:23:25;8.38;;;2.40;;
38851;SDS011;24605;50.092;9.182;2023-09-19T03:25:52;9.00;;;3.20;;
38851;SDS011;24605;50.092;9.182;2023-09-19T03:28:21;7.07;;;3.28;;
38851;SDS011;24605;50.092;9.182;2023-09-19T03:30:56;6.97;;;3.33;;
38851;SDS011;24605;50.092;9.182;2023-09-19T03:33:24;9.57;;;2.88;;
38851;SDS011;24605;50.092;9.182;2023-09-19T03:35:51;6.50;;;2.97;;
38851;SDS011;24605;50.092;9.182;2023-09-19T03:38:18;5.45;;;2.97;;
38851;SDS011;24605;50.092;9.182;2023-09-19T03:40:45;8.00;;;3.00;;
38851;SDS011;24605;50.092;9.182;2023-09-19T03:43:11;4.68;;;2.67;;
38851;SDS011;24605;50.092;9.182;2023-09-19T03:45:39;6.03;;;2.85;;
38851;SDS011;24605;50.092;9.182;2023-09-19T03:48:07;7.25;;;3.10;;
38851;SDS011;24605;50.092;9.182;2023-09-19T03:50:34;7.88;;;2.85;;
38851;SDS011;24605;50.092;9.182;2023-09-19T03:53:01;8.65;;;3.58;;
38851;SDS011;24605;50.092;9.182;2023-09-19T03:55:28;6.22;;;2.95;;
38851;SDS011;24605;50.092;9.182;2023-09-19T03:57:55;7.30;;;3.33;;
38851;SDS011;24605;50.092;9.182;2023-09-19T04:00:22;5.25;;;2.70;;
38851;SDS011;24605;50.092;9.182;2023-09-19T04:02:52;8.32;;;3.38;;
38851;SDS011;24605;50.092;9.182;2023-09-19T04:05:21;6.63;;;3.47;;
38851;SDS011;24605;50.092;9.182;2023-09-19T04:07:48;7.95;;;3.90;;
38851;SDS011;24605;50.092;9.182;2023-09-19T04:10:15;6.57;;;3.25;;
38851;SDS011;24605;50.092;9.182;2023-09-19T04:12:50;7.75;;;3.58;;
38851;SDS011;24605;50.092;9.182;2023-09-19T04:15:17;7.95;;;3.58;;
38851;SDS011;24605;50.092;9.182;2023-09-19T04:17:43;6.63;;;3.63;;
38851;SDS011;24605;50.092;9.182;2023-09-19T04:20:11;6.30;;;3.35;;
38851;SDS011;24605;50.092;9.182;2023-09-19T04:22:38;6.38;;;2.92;;
38851;SDS011;24605;50.092;9.182;2023-09-19T04:25:05;7.18;;;3.30;;
38851;SDS011;24605;50.092;9.182;2023-09-19T04:27:33;8.27;;;3.00;;
38851;SDS011;24605;50.092;9.182;2023-09-19T04:29:59;6.78;;;3.20;;
38851;SDS011;24605;50.092;9.182;2023-09-19T04:32:34;5.32;;;3.10;;
38851;SDS011;24605;50.092;9.182;2023-09-19T04:35:01;4.53;;;2.63;;
38851;SDS011;24605;50.092;9.182;2023-09-19T04:37:32;8.88;;;3.03;;
38851;SDS011;24605;50.092;9.182;2023-09-19T04:39:58;5.60;;;2.47;;
38851;SDS011;24605;50.092;9.182;2023-09-19T04:42:25;5.63;;;2.88;;
38851;SDS011;24605;50.092;9.182;2023-09-19T04:44:52;5.88;;;2.40;;
38851;SDS011;24605;50.092;9.182;2023-09-19T04:47:19;6.60;;;2.58;;
38851;SDS011;24605;50.092;9.182;2023-09-19T04:49:47;5.88;;;2.50;;
38851;SDS011;24605;50.092;9.182;2023-09-19T04:52:13;5.47;;;2.10;;
38851;SDS011;24605;50.092;9.182;2023-09-19T04:54:42;6.00;;;2.40;;
38851;SDS011;24605;50.092;9.182;2023-09-19T04:57:10;8.20;;;2.40;;
38851;SDS011;24605;50.092;9.182;2023-09-19T04:59:37;6.22;;;2.10;;
38851;SDS011;24605;50.092;9.182;2023-09-19T05:02:06;6.10;;;2.60;;
38851;SDS011;24605;50.092;9.182;2023-09-19T05:04:33;5.35;;;2.20;;
38851;SDS011;24605;50.092;9.182;2023-09-19T05:07:00;5.65;;;2.30;;
38851;SDS011;24605;50.092;9.182;2023-09-19T05:09:28;6.20;;;2.60;;
38851;SDS011;24605;50.092;9.182;2023-09-19T05:11:56;8.50;;;2.47;;
38851;SDS011;24605;50.092;9.182;2023-09-19T05:14:23;6.70;;;2.28;;
38851;SDS011;24605;50.092;9.182;2023-09-19T05:16:49;7.20;;;2.50;;
38851;SDS011;24605;50.092;9.182;2023-09-19T05:19:16;6.38;;;2.00;;
38851;SDS011;24605;50.092;9.182;2023-09-19T05:21:43;6.03;;;2.10;;
38851;SDS011;24605;50.092;9.182;2023-09-19T05:24:09;4.85;;;2.47;;
38851;SDS011;24605;50.092;9.182;2023-09-19T05:26:36;4.55;;;1.75;;
38851;SDS011;24605;50.092;9.182;2023-09-19T05:29:04;3.85;;;1.75;;
38851;SDS011;24605;50.092;9.182;2023-09-19T05:31:33;6.63;;;1.67;;
38851;SDS011;24605;50.092;9.182;2023-09-19T05:34:01;4.50;;;1.65;;
38851;SDS011;24605;50.092;9.182;2023-09-19T05:36:28;7.28;;;2.00;;
38851;SDS011;24605;50.092;9.182;2023-09-19T05:38:55;5.75;;;1.95;;
38851;SDS011;24605;50.092;9.182;2023-09-19T05:41:21;4.38;;;2.13;;
38851;SDS011;24605;50.092;9.182;2023-09-19T05:43:48;5.38;;;1.90;;
38851;SDS011;24605;50.092;9.182;2023-09-19T05:46:17;10.35;;;2.33;;
38851;SDS011;24605;50.092;9.182;2023-09-19T05:48:44;6.07;;;2.58;;
38851;SDS011;24605;50.092;9.182;2023-09-19T05:51:12;7.88;;;3.17;;
38851;SDS011;24605;50.092;9.182;2023-09-19T05:53:39;9.45;;;3.42;;
38851;SDS011;24605;50.092;9.182;2023-09-19T05:56:08;7.88;;;3.25;;
38851;SDS011;24605;50.092;9.182;2023-09-19T05:58:36;8.40;;;2.90;;
38851;SDS011;24605;50.092;9.182;2023-09-19T06:01:03;9.00;;;2.65;;
38851;SDS011;24605;50.092;9.182;2023-09-19T06:03:33;5.25;;;2.63;;
38851;SDS011;24605;50.092;9.182;2023-09-19T06:06:00;5.78;;;2.60;;
38851;SDS011;24605;50.092;9.182;2023-09-19T06:08:27;4.68;;;2.45;;
38851;SDS011;24605;50.092;9.182;2023-09-19T06:10:53;4.90;;;2.53;;
38851;SDS011;24605;50.092;9.182;2023-09-19T06:13:20;7.60;;;2.25;;
38851;SDS011;24605;50.092;9.182;2023-09-19T06:15:47;5.18;;;2.00;;
38851;SDS011;24605;50.092;9.182;2023-09-19T06:18:14;8.02;;;2.25;;
38851;SDS011;24605;50.092;9.182;2023-09-19T06:20:45;4.35;;;1.75;;
38851;SDS011;24605;50.092;9.182;2023-09-19T06:23:12;8.18;;;2.45;;
38851;SDS011;24605;50.092;9.182;2023-09-19T06:25:39;7.43;;;2.20;;
38851;SDS011;24605;50.092;9.182;2023-09-19T06:28:08;7.57;;;2.00;;
38851;SDS011;24605;50.092;9.182;2023-09-19T06:30:37;7.22;;;1.95;;
38851;SDS011;24605;50.092;9.182;2023-09-19T06:33:05;7.25;;;2.30;;
38851;SDS011;24605;50.092;9.182;2023-09-19T06:35:32;6.93;;;2.30;;
38851;SDS011;24605;50.092;9.182;2023-09-19T06:38:03;9.73;;;2.83;;
38851;SDS011;24605;50.092;9.182;2023-09-19T06:40:30;5.05;;;2.30;;
38851;SDS011;24605;50.092;9.182;2023-09-19T06:42:57;8.15;;;2.72;;
38851;SDS011;24605;50.092;9.182;2023-09-19T06:45:23;5.85;;;2.55;;
38851;SDS011;24605;50.092;9.182;2023-09-19T06:47:52;6.00;;;2.20;;
38851;SDS011;24605;50.092;9.182;2023-09-19T06:50:19;6.63;;;2.90;;
38851;SDS011;24605;50.092;9.182;2023-09-19T06:52:47;6.78;;;2.67;;
38851;SDS011;24605;50.092;9.182;2023-09-19T06:55:16;4.97;;;2.42;;
38851;SDS011;24605;50.092;9.182;2023-09-19T06:57:44;6.07;;;2.33;;
38851;SDS011;24605;50.092;9.182;2023-09-19T07:00:12;7.20;;;2.90;;
38851;SDS011;24605;50.092;9.182;2023-09-19T07:02:43;12.32;;;3.00;;
38851;SDS011;24605;50.092;9.182;2023-09-19T07:05:10;9.68;;;3.15;;
38851;SDS011;24605;50.092;9.182;2023-09-19T07:07:36;9.63;;;3.38;;
38851;SDS011;24605;50.092;9.182;2023-09-19T07:10:03;6.50;;;2.78;;
38851;SDS011;24605;50.092;9.182;2023-09-19T07:12:32;7.32;;;2.95;;
38851;SDS011;24605;50.092;9.182;2023-09-19T07:14:58;8.77;;;2.72;;
38851;SDS011;24605;50.092;9.182;2023-09-19T07:17:25;7.90;;;2.97;;
38851;SDS011;24605;50.092;9.182;2023-09-19T07:19:52;5.25;;;2.60;;
38851;SDS011;24605;50.092;9.182;2023-09-19T07:22:19;6.50;;;2.60;;
38851;SDS011;24605;50.092;9.182;2023-09-19T07:24:45;12.30;;;2.92;;
38851;SDS011;24605;50.092;9.182;2023-09-19T07:27:12;8.02;;;2.20;;
38851;SDS011;24605;50.092;9.182;2023-09-19T07:29:39;5.32;;;2.38;;
38851;SDS011;24605;50.092;9.182;2023-09-19T07:32:07;5.43;;;2.17;;
38851;SDS011;24605;50.092;9.182;2023-09-19T07:34:35;4.85;;;1.98;;
38851;SDS011;24605;50.092;9.182;2023-09-19T07:37:01;6.03;;;2.05;;
38851;SDS011;24605;50.092;9.182;2023-09-19T07:39:28;5.95;;;1.90;;
38851;SDS011;24605;50.092;9.182;2023-09-19T07:41:54;5.85;;;1.90;;
38851;SDS011;24605;50.092;9.182;2023-09-19T07:44:21;7.28;;;1.95;;
38851;SDS011;24605;50.092;9.182;2023-09-19T07:46:49;5.40;;;2.03;;
38851;SDS011;24605;50.092;9.182;2023-09-19T07:49:18;7.72;;;2.00;;
38851;SDS011;24605;50.092;9.182;2023-09-19T07:51:45;6.32;;;2.05;;
38851;SDS011;24605;50.092;9.182;2023-09-19T07:54:11;7.25;;;1.90;;
38851;SDS011;24605;50.092;9.182;2023-09-19T07:56:39;5.03;;;2.20;;
38851;SDS011;24605;50.092;9.182;2023-09-19T07:59:06;6.10;;;1.70;;
38851;SDS011;24605;50.092;9.182;2023-09-19T08:01:33;6.15;;;1.77;;
38851;SDS011;24605;50.092;9.182;2023-09-19T08:04:02;7.10;;;2.10;;
38851;SDS011;24605;50.092;9.182;2023-09-19T08:06:28;5.93;;;1.80;;
38851;SDS011;24605;50.092;9.182;2023-09-19T08:08:55;5.65;;;2.00;;
38851;SDS011;24605;50.092;9.182;2023-09-19T08:11:22;6.55;;;1.92;;
38851;SDS011;24605;50.092;9.182;2023-09-19T08:13:49;7.00;;;2.08;;
38851;SDS011;24605;50.092;9.182;2023-09-19T08:16:16;4.57;;;1.77;;
38851;SDS011;24605;50.092;9.182;2023-09-19T08:18:43;5.80;;;1.98;;
38851;SDS011;24605;50.092;9.182;2023-09-19T08:21:14;8.57;;;2.08;;
38851;SDS011;24605;50.092;9.182;2023-09-19T08:23:41;6.60;;;2.33;;
38851;SDS011;24605;50.092;9.182;2023-09-19T08:26:08;5.22;;;2.00;;
38851;SDS011;24605;50.092;9.182;2023-09-19T08:28:35;6.03;;;1.90;;
38851;SDS011;24605;50.092;9.182;2023-09-19T08:31:02;6.10;;;1.90;;
38851;SDS011;24605;50.092;9.182;2023-09-19T08:33:31;5.57;;;1.90;;
38851;SDS011;24605;50.092;9.182;2023-09-19T08:35:58;5.15;;;1.90;;
38851;SDS011;24605;50.092;9.182;2023-09-19T08:38:25;9.50;;;1.90;;
38851;SDS011;24605;50.092;9.182;2023-09-19T08:40:56;7.57;;;2.33;;
38851;SDS011;24605;50.092;9.182;2023-09-19T08:43:23;5.30;;;1.80;;
38851;SDS011;24605;50.092;9.182;2023-09-19T08:45:50;7.93;;;2.00;;
38851;SDS011;24605;50.092;9.182;2023-09-19T08:48:20;6.35;;;1.75;;
38851;SDS011;24605;50.092;9.182;2023-09-19T08:50:51;4.90;;;1.67;;
38851;SDS011;24605;50.092;9.182;2023-09-19T08:53:21;6.70;;;2.05;;
38851;SDS011;24605;50.092;9.182;2023-09-19T08:55:57;8.52;;;1.88;;
38851;SDS011;24605;50.092;9.182;2023-09-19T08:58:31;5.65;;;1.90;;
38851;SDS011;24605;50.092;9.182;2023-09-19T09:01:00;6.15;;;1.90;;
38851;SDS011;24605;50.092;9.182;2023-09-19T09:03:29;5.15;;;1.63;;
38851;SDS011;24605;50.092;9.182;2023-09-19T09:05:59;6.32;;;1.58;;
38851;SDS011;24605;50.092;9.182;2023-09-19T09:08:28;4.93;;;1.60;;
38851;SDS011;24605;50.092;9.182;2023-09-19T09:10:58;7.97;;;2.00;;
38851;SDS011;24605;50.092;9.182;2023-09-19T09:13:25;6.53;;;1.65;;
38851;SDS011;24605;50.092;9.182;2023-09-19T09:15:52;5.97;;;1.98;;
38851;SDS011;24605;50.092;9.182;2023-09-19T09:18:19;4.75;;;1.80;;
38851;SDS011;24605;50.092;9.182;2023-09-19T09:20:47;5.10;;;1.70;;
38851;SDS011;24605;50.092;9.182;2023-09-19T09:23:14;6.05;;;1.80;;
38851;SDS011;24605;50.092;9.182;2023-09-19T09:25:48;5.38;;;2.25;;
38851;SDS011;24605;50.092;9.182;2023-09-19T09:28:19;5.50;;;1.70;;
38851;SDS011;24605;50.092;9.182;2023-09-19T09:30:47;4.63;;;1.63;;
38851;SDS011;24605;50.092;9.182;2023-09-19T09:33:14;7.40;;;1.73;;
38851;SDS011;24605;50.092;9.182;2023-09-19T09:35:48;6.65;;;1.75;;
38851;SDS011;24605;50.092;9.182;2023-09-19T09:38:17;5.68;;;1.40;;
38851;SDS011;24605;50.092;9.182;2023-09-19T09:40:49;7.57;;;1.70;;
38851;SDS011;24605;50.092;9.182;2023-09-19T09:43:34;6.80;;;1.67;;
38851;SDS011;24605;50.092;9.182;2023-09-19T09:46:11;5.40;;;1.50;;
38851;SDS011;24605;50.092;9.182;2023-09-19T09:49:10;5.07;;;1.55;;
38851;SDS011;24605;50.092;9.182;2023-09-19T09:51:58;7.20;;;2.03;;
38851;SDS011;24605;50.092;9.182;2023-09-19T09:54:26;7.32;;;1.48;;
38851;SDS011;24605;50.092;9.182;2023-09-19T09:57:02;7.25;;;1.70;;
38851;SDS011;24605;50.092;9.182;2023-09-19T09:59:51;6.75;;;1.45;;
38851;SDS011;24605;50.092;9.182;2023-09-19T10:02:20;7.85;;;1.60;;
38851;SDS011;24605;50.092;9.182;2023-09-19T10:04:54;4.78;;;1.40;;
38851;SDS011;24605;50.092;9.182;2023-09-19T10:07:35;5.28;;;1.30;;
38851;SDS011;24605;50.092;9.182;2023-09-19T10:10:12;6.10;;;1.65;;
38851;SDS011;24605;50.092;9.182;2023-09-19T10:12:43;6.32;;;1.67;;
38851;SDS011;24605;50.092;9.182;2023-09-19T10:15:15;4.50;;;1.40;;
38851;SDS011;24605;50.092;9.182;2023-09-19T10:17:45;7.00;;;1.38;;
38851;SDS011;24605;50.092;9.182;2023-09-19T10:20:13;7.55;;;1.70;;
38851;SDS011;24605;50.092;9.182;2023-09-19T10:22:59;7.05;;;1.70;;
38851;SDS011;24605;50.092;9.182;2023-09-19T10:25:27;7.30;;;1.42;;
38851;SDS011;24605;50.092;9.182;2023-09-19T10:27:56;7.75;;;1.65;;
38851;SDS011;24605;50.092;9.182;2023-09-19T10:30:27;5.28;;;1.60;;
38851;SDS011;24605;50.092;9.182;2023-09-19T10:32:57;7.22;;;1.65;;
38851;SDS011;24605;50.092;9.182;2023-09-19T10:35:26;7.45;;;1.38;;
38851;SDS011;24605;50.092;9.182;2023-09-19T10:37:54;6.20;;;1.60;;
38851;SDS011;24605;50.092;9.182;2023-09-19T10:40:23;3.67;;;1.10;;
38851;SDS011;24605;50.092;9.182;2023-09-19T10:42:58;5.82;;;1.85;;
38851;SDS011;24605;50.092;9.182;2023-09-19T10:45:28;4.43;;;1.48;;
38851;SDS011;24605;50.092;9.182;2023-09-19T10:47:56;3.80;;;1.40;;
38851;SDS011;24605;50.092;9.182;2023-09-19T10:50:23;4.03;;;1.63;;
38851;SDS011;24605;50.092;9.182;2023-09-19T10:52:50;4.80;;;1.63;;
38851;SDS011;24605;50.092;9.182;2023-09-19T10:55:25;5.28;;;1.65;;
38851;SDS011;24605;50.092;9.182;2023-09-19T10:57:55;5.30;;;1.40;;
38851;SDS011;24605;50.092;9.182;2023-09-19T11:00:24;4.82;;;1.30;;
38851;SDS011;24605;50.092;9.182;2023-09-19T11:05:59;7.70;;;1.70;;
38851;SDS011;24605;50.092;9.182;2023-09-19T11:08:29;5.80;;;1.80;;
38851;SDS011;24605;50.092;9.182;2023-09-19T11:10:57;5.40;;;1.60;;
38851;SDS011;24605;50.092;9.182;2023-09-19T11:13:24;6.07;;;1.95;;
38851;SDS011;24605;50.092;9.182;2023-09-19T11:18:51;7.00;;;1.58;;
38851;SDS011;24605;50.092;9.182;2023-09-19T11:21:38;6.10;;;1.52;;
38851;SDS011;24605;50.092;9.182;2023-09-19T11:24:27;9.88;;;2.10;;
38851;SDS011;24605;50.092;9.182;2023-09-19T11:27:08;7.57;;;1.80;;
38851;SDS011;24605;50.092;9.182;2023-09-19T11:29:40;10.13;;;2.00;;
38851;SDS011;24605;50.092;9.182;2023-09-19T11:32:08;6.00;;;1.77;;
38851;SDS011;24605;50.092;9.182;2023-09-19T11:34:41;4.35;;;1.50;;
38851;SDS011;24605;50.092;9.182;2023-09-19T11:40:27;6.30;;;1.73;;
38851;SDS011;24605;50.092;9.182;2023-09-19T11:42:55;8.27;;;2.33;;
38851;SDS011;24605;50.092;9.182;2023-09-19T11:48:28;6.57;;;1.77;;
38851;SDS011;24605;50.092;9.182;2023-09-19T11:50:55;5.32;;;1.55;;
38851;SDS011;24605;50.092;9.182;2023-09-19T11:53:24;8.48;;;2.08;;
38851;SDS011;24605;50.092;9.182;2023-09-19T11:55:58;7.50;;;1.60;;
38851;SDS011;24605;50.092;9.182;2023-09-19T11:58:26;6.47;;;1.90;;
38851;SDS011;24605;50.092;9.182;2023-09-19T12:00:54;9.13;;;1.80;;
38851;SDS011;24605;50.092;9.182;2023-09-19T12:03:23;7.65;;;1.70;;
38851;SDS011;24605;50.092;9.182;2023-09-19T12:05:57;11.18;;;2.45;;
38851;SDS011;24605;50.092;9.182;2023-09-19T12:08:24;8.38;;;1.90;;
38851;SDS011;24605;50.092;9.182;2023-09-19T12:10:52;4.82;;;1.60;;
38851;SDS011;24605;50.092;9.182;2023-09-19T12:13:20;8.50;;;1.75;;
38851;SDS011;24605;50.092;9.182;2023-09-19T12:15:47;5.10;;;1.55;;
38851;SDS011;24605;50.092;9.182;2023-09-19T12:18:26;8.82;;;2.05;;
38851;SDS011;24605;50.092;9.182;2023-09-19T12:20:56;11.55;;;2.67;;
38851;SDS011;24605;50.092;9.182;2023-09-19T12:23:23;9.35;;;2.22;;
38851;SDS011;24605;50.092;9.182;2023-09-19T12:25:50;8.13;;;2.20;;
38851;SDS011;24605;50.092;9.182;2023-09-19T12:28:18;10.00;;;2.10;;
38851;SDS011;24605;50.092;9.182;2023-09-19T12:30:46;8.48;;;2.03;;
38851;SDS011;24605;50.092;9.182;2023-09-19T12:33:18;6.07;;;1.88;;
38851;SDS011;24605;50.092;9.182;2023-09-19T12:35:46;7.15;;;2.10;;
38851;SDS011;24605;50.092;9.182;2023-09-19T12:38:23;8.48;;;1.75;;
38851;SDS011;24605;50.092;9.182;2023-09-19T12:40:53;7.47;;;1.70;;
38851;SDS011;24605;50.092;9.182;2023-09-19T12:43:20;6.40;;;1.67;;
38851;SDS011;24605;50.092;9.182;2023-09-19T12:45:47;7.15;;;1.52;;
38851;SDS011;24605;50.092;9.182;2023-09-19T12:48:17;7.32;;;2.20;;
38851;SDS011;24605;50.092;9.182;2023-09-19T12:51:04;6.13;;;1.63;;
38851;SDS011;24605;50.092;9.182;2023-09-19T12:53:39;7.10;;;1.90;;
38851;SDS011;24605;50.092;9.182;2023-09-19T12:56:07;6.15;;;1.60;;
38851;SDS011;24605;50.092;9.182;2023-09-19T12:58:34;5.10;;;1.90;;
38851;SDS011;24605;50.092;9.182;2023-09-19T13:01:14;7.05;;;2.15;;
38851;SDS011;24605;50.092;9.182;2023-09-19T13:03:40;8.32;;;1.92;;
38851;SDS011;24605;50.092;9.182;2023-09-19T13:06:07;11.18;;;1.75;;
38851;SDS011;24605;50.092;9.182;2023-09-19T13:08:38;6.88;;;1.60;;
38851;SDS011;24605;50.092;9.182;2023-09-19T13:11:08;6.38;;;1.88;;
38851;SDS011;24605;50.092;9.182;2023-09-19T13:13:41;6.80;;;1.55;;
38851;SDS011;24605;50.092;9.182;2023-09-19T13:16:10;4.35;;;1.48;;
38851;SDS011;24605;50.092;9.182;2023-09-19T13:18:46;5.50;;;1.77;;
38851;SDS011;24605;50.092;9.182;2023-09-19T13:21:16;7.40;;;1.73;;
38851;SDS011;24605;50.092;9.182;2023-09-19T13:23:50;6.05;;;1.65;;
38851;SDS011;24605;50.092;9.182;2023-09-19T13:26:17;8.23;;;1.80;;
38851;SDS011;24605;50.092;9.182;2023-09-19T13:28:44;7.03;;;1.58;;
38851;SDS011;24605;50.092;9.182;2023-09-19T13:31:13;4.85;;;1.50;;
38851;SDS011;24605;50.092;9.182;2023-09-19T13:33:42;4.75;;;1.58;;
38851;SDS011;24605;50.092;9.182;2023-09-19T13:36:10;6.68;;;1.40;;
38851;SDS011;24605;50.092;9.182;2023-09-19T13:38:37;5.50;;;1.58;;
38851;SDS011;24605;50.092;9.182;2023-09-19T13:41:04;7.05;;;1.95;;
38851;SDS011;24605;50.092;9.182;2023-09-19T13:43:32;8.27;;;1.85;;
38851;SDS011;24605;50.092;9.182;2023-09-19T13:45:58;7.63;;;2.30;;
38851;SDS011;24605;50.092;9.182;2023-09-19T13:48:25;4.95;;;1.60;;
38851;SDS011;24605;50.092;9.182;2023-09-19T13:50:51;6.47;;;1.50;;
38851;SDS011;24605;50.092;9.182;2023-09-19T13:53:18;8.30;;;1.83;;
38851;SDS011;24605;50.092;9.182;2023-09-19T13:55:44;5.10;;;1.58;;
38851;SDS011;24605;50.092;9.182;2023-09-19T13:58:12;7.72;;;1.30;;
38851;SDS011;24605;50.092;9.182;2023-09-19T14:00:39;6.13;;;1.30;;
38851;SDS011;24605;50.092;9.182;2023-09-19T14:03:05;5.82;;;1.30;;
38851;SDS011;24605;50.092;9.182;2023-09-19T14:05:32;4.13;;;1.40;;
38851;SDS011;24605;50.092;9.182;2023-09-19T14:07:58;5.97;;;1.50;;
38851;SDS011;24605;50.092;9.182;2023-09-19T14:10:26;4.57;;;1.20;;
38851;SDS011;24605;50.092;9.182;2023-09-19T14:12:52;8.90;;;1.95;;
38851;SDS011;24605;50.092;9.182;2023-09-19T14:15:20;6.82;;;1.63;;
38851;SDS011;24605;50.092;9.182;2023-09-19T14:17:54;5.07;;;1.40;;
38851;SDS011;24605;50.092;9.182;2023-09-19T14:20:20;7.15;;;1.45;;
38851;SDS011;24605;50.092;9.182;2023-09-19T14:22:47;4.22;;;1.50;;
38851;SDS011;24605;50.092;9.182;2023-09-19T14:25:14;7.63;;;1.45;;
38851;SDS011;24605;50.092;9.182;2023-09-19T14:27:40;3.92;;;1.20;;
38851;SDS011;24605;50.092;9.182;2023-09-19T14:30:07;6.63;;;1.50;;
38851;SDS011;24605;50.092;9.182;2023-09-19T14:32:36;5.22;;;1.60;;
38851;SDS011;24605;50.092;9.182;2023-09-19T14:35:03;4.13;;;1.48;;
38851;SDS011;24605;50.092;9.182;2023-09-19T14:37:29;6.30;;;1.52;;
38851;SDS011;24605;50.092;9.182;2023-09-19T14:39:56;7.57;;;1.60;;
38851;SDS011;24605;50.092;9.182;2023-09-19T14:42:22;3.53;;;1.10;;
38851;SDS011;24605;50.092;9.182;2023-09-19T14:44:49;4.47;;;1.30;;
38851;SDS011;24605;50.092;9.182;2023-09-19T14:47:15;3.90;;;1.20;;
38851;SDS011;24605;50.092;9.182;2023-09-19T14:49:43;2.65;;;1.20;;
38851;SDS011;24605;50.092;9.182;2023-09-19T14:52:11;5.00;;;1.38;;
38851;SDS011;24605;50.092;9.182;2023-09-19T14:54:40;4.93;;;1.27;;
38851;SDS011;24605;50.092;9.182;2023-09-19T14:57:07;5.93;;;1.30;;
38851;SDS011;24605;50.092;9.182;2023-09-19T14:59:33;5.95;;;1.50;;
38851;SDS011;24605;50.092;9.182;2023-09-19T15:02:02;5.30;;;1.30;;
38851;SDS011;24605;50.092;9.182;2023-09-19T15:04:29;4.30;;;1.25;;
38851;SDS011;24605;50.092;9.182;2023-09-19T15:06:57;3.45;;;1.17;;
38851;SDS011;24605;50.092;9.182;2023-09-19T15:09:23;5.07;;;1.30;;
38851;SDS011;24605;50.092;9.182;2023-09-19T15:11:51;4.03;;;1.20;;
38851;SDS011;24605;50.092;9.182;2023-09-19T15:14:18;4.70;;;1.30;;